Time;durP1;ratioP1;P1;durP2;ratioP2;P2;SDS_P1;SDS_P2;PMS_P1;PMS_P2;Temp;Humidity;BMP_temperature;BMP_pressure;BME280_temperature;BME280_humidity;BME280_pressure;Samples;Min_cycle;Max_cycle;Signal;HPM_P1;HPM_P2
2021/09/29 00:02:03;;;;;;;7.90;4.32;;;13.30;88.80;;;;;;5050081;28;20417;-78
2021/09/29 00:04:29;;;;;;;11.45;4.22;;;13.20;88.80;;;;;;5031293;28;20036;-79
2021/09/29 00:06:55;;;;;;;8.98;3.92;;;13.20;88.90;;;;;;5048908;28;20049;-78
2021/09/29 00:09:20;;;;;;;9.65;3.58;;;13.20;88.90;;;;;;5051639;28;20044;-78
2021/09/29 00:11:47;;;;;;;8.70;3.85;;;13.20;88.90;;;;;;5051760;28;20086;-79
2021/09/29 00:14:13;;;;;;;13.40;4.30;;;13.20;88.90;;;;;;5051356;28;20142;-78
2021/09/29 00:16:38;;;;;;;8.23;4.10;;;13.20;88.90;;;;;;5051750;28;20029;-78
2021/09/29 00:19:04;;;;;;;12.30;4.70;;;13.20;89.10;;;;;;5049911;28;20128;-78
2021/09/29 00:21:30;;;;;;;9.43;4.43;;;13.20;89.10;;;;;;5030094;28;20029;-79
2021/09/29 00:23:55;;;;;;;9.65;4.00;;;13.20;89.90;;;;;;5049061;28;20025;-78
2021/09/29 00:26:21;;;;;;;8.98;3.88;;;13.20;89.30;;;;;;5021240;28;20033;-79
2021/09/29 00:28:47;;;;;;;13.00;4.60;;;13.10;89.20;;;;;;5051266;28;20029;-78
2021/09/29 00:31:59;;;;;;;12.65;4.40;;;13.10;89.20;;;;;;5033780;28;20047;-79
2021/09/29 00:34:28;;;;;;;9.07;3.97;;;13.10;89.20;;;;;;5035969;28;20039;-79
2021/09/29 00:36:56;;;;;;;7.88;3.92;;;13.20;89.30;;;;;;5051177;28;20036;-78
2021/09/29 00:39:21;;;;;;;10.13;4.32;;;13.20;89.30;;;;;;5049985;28;20036;-78
2021/09/29 00:41:48;;;;;;;8.38;4.28;;;13.20;89.20;;;;;;5051689;28;20033;-79
2021/09/29 00:44:14;;;;;;;10.55;4.20;;;13.20;89.20;;;;;;5051235;28;20043;-79
2021/09/29 00:46:40;;;;;;;9.65;4.10;;;13.20;89.20;;;;;;5049363;28;20373;-79
2021/09/29 00:49:05;;;;;;;8.73;4.60;;;13.20;89.10;;;;;;5032954;28;20079;-78
2021/09/29 00:51:33;;;;;;;9.02;4.80;;;13.20;89.10;;;;;;5051948;28;20496;-79
2021/09/29 00:53:59;;;;;;;16.67;5.18;;;13.20;89.10;;;;;;5051319;28;20508;-79
2021/09/29 00:56:25;;;;;;;12.73;4.15;;;13.30;89.20;;;;;;5033309;28;20035;-78
2021/09/29 00:58:51;;;;;;;10.50;4.40;;;13.20;89.20;;;;;;5051321;28;20571;-78
2021/09/29 01:01:16;;;;;;;5.55;3.90;;;13.20;89.70;;;;;;5049851;28;20527;-78
2021/09/29 01:03:45;;;;;;;10.73;4.80;;;13.20;89.20;;;;;;5051104;28;20033;-79
2021/09/29 01:06:27;;;;;;;9.82;4.72;;;13.20;89.20;;;;;;5047869;28;20013;-78
2021/09/29 01:09:01;;;;;;;8.30;4.40;;;13.20;89.20;;;;;;5047293;28;20024;-79
2021/09/29 01:11:58;;;;;;;9.95;4.65;;;13.20;89.20;;;;;;5049584;28;20032;-78
2021/09/29 01:14:38;;;;;;;11.30;5.25;;;13.20;89.40;;;;;;5047310;28;20021;-78
2021/09/29 01:17:05;;;;;;;11.10;5.18;;;13.20;89.40;;;;;;5050601;28;20029;-78
2021/09/29 01:19:55;;;;;;;12.00;4.97;;;13.20;89.40;;;;;;5053498;28;20041;-79
2021/09/29 01:22:54;;;;;;;9.45;5.25;;;13.20;89.60;;;;;;5053777;28;20013;-78
2021/09/29 01:25:38;;;;;;;9.25;4.57;;;13.10;89.60;;;;;;5048583;28;20044;-78
2021/09/29 01:28:05;;;;;;;13.85;5.30;;;13.20;89.70;;;;;;5054248;28;20031;-78
2021/09/29 01:30:33;;;;;;;11.20;5.05;;;13.20;89.70;;;;;;5054762;28;20032;-78
2021/09/29 01:32:59;;;;;;;10.43;5.13;;;13.20;89.70;;;;;;5036400;28;20401;-78
2021/09/29 01:35:25;;;;;;;8.20;4.80;;;13.10;89.60;;;;;;5052284;28;20068;-79
2021/09/29 01:37:51;;;;;;;11.50;4.93;;;13.10;89.70;;;;;;5054300;28;20486;-78
2021/09/29 01:40:16;;;;;;;12.00;5.20;;;13.10;90.10;;;;;;5054447;28;20103;-78
2021/09/29 01:42:42;;;;;;;14.93;5.05;;;13.10;89.90;;;;;;5034470;28;20029;-78
2021/09/29 01:45:08;;;;;;;11.70;4.90;;;13.10;90.00;;;;;;5036194;28;20017;-78
2021/09/29 01:47:34;;;;;;;12.25;4.63;;;13.10;90.00;;;;;;5053195;28;20513;-78
2021/09/29 01:50:01;;;;;;;9.05;5.07;;;13.10;90.00;;;;;;5053584;28;20063;-79
2021/09/29 01:52:30;;;;;;;10.68;4.55;;;13.10;90.00;;;;;;5036051;28;20040;-78
2021/09/29 01:54:56;;;;;;;11.23;4.93;;;13.10;90.10;;;;;;5054200;28;20020;-79
2021/09/29 01:57:23;;;;;;;13.02;5.35;;;13.10;90.10;;;;;;5054040;28;20074;-78
2021/09/29 01:59:49;;;;;;;8.95;4.82;;;13.10;90.10;;;;;;5053942;28;20029;-78
2021/09/29 02:02:15;;;;;;;12.20;4.68;;;13.10;90.20;;;;;;5053683;28;20024;-78
2021/09/29 02:04:48;;;;;;;12.10;4.72;;;13.20;90.10;;;;;;5035987;28;20020;-78
2021/09/29 02:07:14;;;;;;;11.68;4.70;;;13.10;90.20;;;;;;5053919;28;20053;-78
2021/09/29 02:09:40;;;;;;;11.48;5.45;;;13.10;90.10;;;;;;5053865;28;20048;-79
2021/09/29 02:12:06;;;;;;;9.73;4.60;;;13.10;90.10;;;;;;5053365;28;20029;-78
2021/09/29 02:14:32;;;;;;;10.85;4.43;;;13.10;90.10;;;;;;5035827;28;20036;-79
2021/09/29 02:16:58;;;;;;;9.55;4.95;;;13.10;90.10;;;;;;5053746;28;20413;-78
2021/09/29 02:19:24;;;;;;;13.95;5.28;;;13.10;90.20;;;;;;5053819;28;20078;-78
2021/09/29 02:21:52;;;;;;;11.18;5.35;;;13.10;90.20;;;;;;5052593;28;20037;-79
2021/09/29 02:24:17;;;;;;;9.38;4.65;;;13.00;90.20;;;;;;5053744;28;20017;-79
2021/09/29 02:26:43;;;;;;;12.70;5.32;;;13.10;90.10;;;;;;5053348;28;20562;-78
2021/09/29 02:29:10;;;;;;;12.88;5.22;;;13.10;90.10;;;;;;5052826;28;20497;-79
2021/09/29 02:31:36;;;;;;;13.80;5.20;;;13.10;90.10;;;;;;5035756;28;20033;-79
2021/09/29 02:34:02;;;;;;;13.13;4.68;;;13.10;90.10;;;;;;5053553;28;20040;-78
2021/09/29 02:36:28;;;;;;;11.35;5.20;;;13.10;90.10;;;;;;5053251;28;20075;-78
2021/09/29 02:38:53;;;;;;;8.70;4.32;;;13.10;90.10;;;;;;5051183;28;20029;-79
2021/09/29 02:41:20;;;;;;;10.88;4.72;;;13.00;90.00;;;;;;5053435;28;20028;-78
2021/09/29 02:43:46;;;;;;;13.48;4.88;;;13.00;90.10;;;;;;5053259;28;20041;-78
2021/09/29 02:46:12;;;;;;;9.30;4.60;;;12.90;90.10;;;;;;5053058;28;20091;-79
2021/09/29 02:48:38;;;;;;;7.40;4.03;;;12.90;90.40;;;;;;5053095;28;20040;-78
2021/09/29 02:51:03;;;;;;;12.23;4.90;;;12.90;90.20;;;;;;5052881;28;20025;-79
2021/09/29 02:53:29;;;;;;;11.02;4.28;;;12.90;90.20;;;;;;5035278;28;20843;-78
2021/09/29 02:56:00;;;;;;;9.82;4.38;;;12.90;90.20;;;;;;5052876;28;20067;-79
2021/09/29 02:58:26;;;;;;;7.95;4.57;;;12.90;90.20;;;;;;5052732;28;20032;-78
2021/09/29 03:00:54;;;;;;;13.30;3.97;;;12.90;90.20;;;;;;5035118;28;20569;-79
2021/09/29 03:03:20;;;;;;;8.73;3.53;;;12.90;90.20;;;;;;5052441;28;20048;-78
2021/09/29 03:05:46;;;;;;;9.32;4.53;;;12.90;90.20;;;;;;5050001;28;20016;-78
2021/09/29 03:08:13;;;;;;;8.32;3.88;;;12.90;90.20;;;;;;5052724;28;20041;-76
2021/09/29 03:10:40;;;;;;;12.80;4.65;;;12.80;90.20;;;;;;5052662;28;20039;-76
2021/09/29 03:13:06;;;;;;;8.32;4.57;;;12.80;90.20;;;;;;5052349;28;20025;-77
2021/09/29 03:15:32;;;;;;;9.20;4.20;;;12.80;90.20;;;;;;5030981;28;20035;-76
2021/09/29 03:17:58;;;;;;;15.40;5.28;;;12.80;90.20;;;;;;5052145;28;20448;-77
2021/09/29 03:20:25;;;;;;;8.68;4.00;;;12.80;90.30;;;;;;5052709;28;20179;-77
2021/09/29 03:22:52;;;;;;;10.07;4.25;;;12.80;90.20;;;;;;5034610;28;20024;-76
2021/09/29 03:25:18;;;;;;;8.80;4.50;;;12.80;90.00;;;;;;5051095;28;20028;-77
2021/09/29 03:27:44;;;;;;;10.77;4.95;;;12.80;90.20;;;;;;5051288;28;20486;-77
2021/09/29 03:30:11;;;;;;;9.65;4.40;;;12.80;90.20;;;;;;5052532;28;20040;-77
2021/09/29 03:32:37;;;;;;;8.43;4.00;;;12.80;90.20;;;;;;5052305;28;20021;-77
2021/09/29 03:35:03;;;;;;;8.93;3.85;;;12.80;90.20;;;;;;5051160;28;20051;-77
2021/09/29 03:37:28;;;;;;;11.70;4.57;;;12.80;90.20;;;;;;5050896;28;20061;-77
2021/09/29 03:39:54;;;;;;;12.10;4.20;;;12.80;90.20;;;;;;5051567;28;20454;-77
2021/09/29 03:42:20;;;;;;;7.75;3.45;;;12.80;90.20;;;;;;5052105;28;20524;-76
2021/09/29 03:44:45;;;;;;;10.00;3.75;;;12.90;90.20;;;;;;5051921;28;20025;-76
2021/09/29 03:47:11;;;;;;;9.98;4.40;;;12.90;90.20;;;;;;5050984;28;20041;-76
2021/09/29 03:49:37;;;;;;;10.55;3.95;;;12.90;90.20;;;;;;5052044;28;20082;-77
2021/09/29 03:52:03;;;;;;;10.48;4.00;;;12.90;90.20;;;;;;5018203;28;20524;-77
2021/09/29 03:54:28;;;;;;;11.05;3.78;;;12.90;90.20;;;;;;5052226;28;20032;-76
2021/09/29 03:56:54;;;;;;;10.18;4.10;;;12.90;90.10;;;;;;5050814;28;20104;-77
2021/09/29 03:59:20;;;;;;;7.57;3.60;;;13.00;90.10;;;;;;5051984;28;20123;-77
2021/09/29 04:01:46;;;;;;;7.78;3.45;;;13.00;90.10;;;;;;5051842;28;20100;-77
2021/09/29 04:04:12;;;;;;;7.07;3.38;;;13.00;90.10;;;;;;5033533;28;20029;-76
2021/09/29 04:06:38;;;;;;;7.60;3.30;;;13.00;90.10;;;;;;5052154;28;20056;-77
2021/09/29 04:09:03;;;;;;;7.13;3.47;;;13.00;90.10;;;;;;5017729;28;20064;-77
2021/09/29 04:11:30;;;;;;;6.75;3.40;;;13.10;90.10;;;;;;5052251;28;20037;-76
2021/09/29 04:13:57;;;;;;;9.68;3.90;;;13.10;90.30;;;;;;5051706;28;20041;-77
2021/09/29 04:16:22;;;;;;;9.55;3.95;;;13.10;90.10;;;;;;5051640;28;20095;-77
2021/09/29 04:18:48;;;;;;;6.15;3.08;;;13.10;90.00;;;;;;5050605;28;20482;-76
2021/09/29 04:21:14;;;;;;;9.43;4.00;;;13.10;90.00;;;;;;5050514;28;20029;-77
2021/09/29 04:23:40;;;;;;;5.43;3.10;;;13.10;90.10;;;;;;5049524;28;20061;-77
2021/09/29 04:26:07;;;;;;;6.75;3.05;;;13.10;90.10;;;;;;5049835;28;20190;-76
2021/09/29 04:28:33;;;;;;;6.95;3.30;;;13.10;90.10;;;;;;5050148;28;20031;-76
2021/09/29 04:30:58;;;;;;;8.77;3.45;;;13.10;90.10;;;;;;5051183;28;20025;-77
2021/09/29 04:33:24;;;;;;;7.40;2.88;;;13.20;90.10;;;;;;5049714;28;20389;-77
2021/09/29 04:35:50;;;;;;;7.07;2.88;;;13.20;90.00;;;;;;5051183;28;20465;-77
2021/09/29 04:38:16;;;;;;;5.53;2.92;;;13.20;90.00;;;;;;5051647;28;20037;-77
2021/09/29 04:40:41;;;;;;;11.30;3.50;;;13.20;90.00;;;;;;5051333;28;20040;-76
2021/09/29 04:43:07;;;;;;;9.05;3.05;;;13.20;90.00;;;;;;5031899;28;20030;-77
2021/09/29 04:45:33;;;;;;;9.77;2.92;;;13.20;90.10;;;;;;5051213;28;20032;-77
2021/09/29 04:48:02;;;;;;;7.28;2.58;;;13.20;90.00;;;;;;5050856;28;20028;-77
2021/09/29 04:50:28;;;;;;;5.53;2.70;;;13.30;90.10;;;;;;5050450;28;20031;-77
2021/09/29 04:52:53;;;;;;;8.50;3.30;;;13.30;90.10;;;;;;5054996;28;20024;-77
2021/09/29 04:55:19;;;;;;;11.07;2.75;;;13.30;90.10;;;;;;5054992;28;20421;-77
2021/09/29 04:57:45;;;;;;;9.80;3.20;;;13.30;90.10;;;;;;5055490;28;20116;-77
2021/09/29 05:00:11;;;;;;;7.05;2.50;;;13.40;90.20;;;;;;5055597;28;20029;-77
2021/09/29 05:02:39;;;;;;;5.57;2.70;;;13.40;90.30;;;;;;5054405;28;20029;-77
2021/09/29 05:05:05;;;;;;;8.15;3.40;;;13.40;90.30;;;;;;5055618;28;20013;-77
2021/09/29 05:07:31;;;;;;;3.90;2.58;;;13.40;90.50;;;;;;5055169;28;20045;-77
2021/09/29 05:09:57;;;;;;;4.68;2.95;;;13.40;90.50;;;;;;5037089;28;20474;-77
2021/09/29 05:12:30;;;;;;;7.88;3.20;;;13.40;90.60;;;;;;5037127;28;20033;-77
2021/09/29 05:14:57;;;;;;;7.78;3.10;;;13.40;90.80;;;;;;5054532;28;20436;-76
2021/09/29 05:17:23;;;;;;;9.50;3.00;;;13.40;90.80;;;;;;5054992;28;20028;-76
2021/09/29 05:19:49;;;;;;;7.07;2.70;;;13.30;91.00;;;;;;5036761;28;20033;-76
2021/09/29 05:22:14;;;;;;;9.45;3.35;;;13.40;91.00;;;;;;5054722;28;20028;-76
2021/09/29 05:24:40;;;;;;;8.85;3.30;;;13.40;91.10;;;;;;5054685;28;20025;-77
2021/09/29 05:27:06;;;;;;;9.23;3.20;;;13.40;91.20;;;;;;5053252;28;20473;-77
2021/09/29 05:29:33;;;;;;;6.00;3.03;;;13.30;91.20;;;;;;5054826;28;20025;-77
2021/09/29 05:31:59;;;;;;;8.27;3.33;;;13.40;91.30;;;;;;5054745;28;20425;-76
2021/09/29 05:34:25;;;;;;;7.95;3.00;;;13.30;91.40;;;;;;5054034;28;20029;-76
2021/09/29 05:36:51;;;;;;;9.45;3.10;;;13.40;91.50;;;;;;5054276;28;20045;-76
2021/09/29 05:39:17;;;;;;;5.93;2.63;;;13.30;91.60;;;;;;5053192;28;20041;-76
2021/09/29 05:41:43;;;;;;;5.72;2.80;;;13.40;91.60;;;;;;5036136;28;20113;-76
2021/09/29 05:44:08;;;;;;;9.07;3.30;;;13.40;91.70;;;;;;5033048;28;20123;-76
2021/09/29 05:46:35;;;;;;;8.10;2.53;;;13.30;91.70;;;;;;5050249;28;20025;-76
2021/09/29 05:49:01;;;;;;;5.20;2.53;;;13.40;91.70;;;;;;5035434;28;20025;-76
2021/09/29 05:51:27;;;;;;;7.43;2.80;;;13.40;91.80;;;;;;5050719;28;20037;-76
2021/09/29 05:53:52;;;;;;;7.70;2.92;;;13.40;91.80;;;;;;5043392;28;20029;-76
2021/09/29 05:56:18;;;;;;;6.65;2.88;;;13.40;91.90;;;;;;5053164;28;20051;-76
2021/09/29 05:58:55;;;;;;;7.63;2.42;;;13.40;91.90;;;;;;5035295;28;20021;-78
2021/09/29 06:01:21;;;;;;;8.95;2.35;;;13.40;92.00;;;;;;5051537;28;20059;-77
2021/09/29 06:03:46;;;;;;;7.63;2.70;;;13.40;92.00;;;;;;5051922;28;20036;-77
2021/09/29 06:06:12;;;;;;;9.77;2.55;;;13.40;92.00;;;;;;5053339;28;20481;-77
2021/09/29 06:08:38;;;;;;;7.00;2.70;;;13.40;92.00;;;;;;5053446;28;20045;-77
2021/09/29 06:11:03;;;;;;;5.25;2.33;;;13.40;92.10;;;;;;5053206;28;20060;-76
2021/09/29 06:13:29;;;;;;;6.75;2.45;;;13.50;92.20;;;;;;5051424;28;20037;-76
2021/09/29 06:15:55;;;;;;;6.95;2.35;;;13.40;92.20;;;;;;5053374;28;20033;-76
2021/09/29 06:18:21;;;;;;;9.15;2.78;;;13.50;92.30;;;;;;5034504;28;20035;-76
2021/09/29 06:20:52;;;;;;;8.68;2.78;;;13.50;92.30;;;;;;5052549;28;20025;-76
2021/09/29 06:23:19;;;;;;;9.07;2.92;;;13.50;92.30;;;;;;5052682;28;20021;-76
2021/09/29 06:25:47;;;;;;;10.40;3.10;;;13.50;92.30;;;;;;5052425;28;20390;-76
2021/09/29 06:28:12;;;;;;;6.88;2.90;;;13.50;92.30;;;;;;5052990;28;20029;-77
2021/09/29 06:30:38;;;;;;;12.55;2.90;;;13.60;92.40;;;;;;5052625;28;20033;-77
2021/09/29 06:33:04;;;;;;;9.93;2.75;;;13.60;92.40;;;;;;5054986;28;20037;-82
2021/09/29 06:35:30;;;;;;;11.82;2.35;;;13.70;92.40;;;;;;5056121;28;20029;-81
2021/09/29 06:38:00;;;;;;;10.05;2.63;;;13.70;92.30;;;;;;5036235;28;20039;-81
2021/09/29 06:40:27;;;;;;;9.40;2.47;;;13.70;92.30;;;;;;5036087;28;20036;-81
2021/09/29 06:42:53;;;;;;;8.57;2.50;;;13.70;92.20;;;;;;5036210;28;20021;-81
2021/09/29 06:45:20;;;;;;;8.18;2.40;;;13.70;92.20;;;;;;5054334;28;20031;-83
2021/09/29 06:47:48;;;;;;;9.32;2.40;;;13.80;92.30;;;;;;5053717;28;20029;-81
2021/09/29 06:50:16;;;;;;;11.57;2.33;;;13.80;92.20;;;;;;5053699;28;20024;-81
2021/09/29 06:52:41;;;;;;;6.35;2.05;;;13.70;92.20;;;;;;5054382;28;20029;-81
2021/09/29 06:55:08;;;;;;;8.98;2.30;;;13.80;92.40;;;;;;5052618;28;20367;-81
2021/09/29 06:57:34;;;;;;;7.10;2.00;;;13.80;92.40;;;;;;5051244;28;20035;-80
2021/09/29 07:00:00;;;;;;;8.20;2.15;;;13.90;92.40;;;;;;5026244;28;20029;-80
2021/09/29 07:02:26;;;;;;;11.10;2.53;;;13.80;92.40;;;;;;5042192;28;20536;-80
2021/09/29 07:04:52;;;;;;;4.40;2.08;;;13.90;92.50;;;;;;5034353;28;20021;-80
2021/09/29 07:07:17;;;;;;;8.68;2.47;;;13.80;92.50;;;;;;5026550;28;20049;-80
2021/09/29 07:09:43;;;;;;;6.40;2.38;;;13.80;92.60;;;;;;5040130;28;20741;-80
2021/09/29 07:12:09;;;;;;;9.00;2.20;;;13.90;92.80;;;;;;5035667;28;20048;-80
2021/09/29 07:14:35;;;;;;;6.93;2.75;;;13.80;92.90;;;;;;5053558;28;20032;-81
2021/09/29 07:17:01;;;;;;;7.70;2.50;;;13.80;92.90;;;;;;5035470;28;20414;-81
2021/09/29 07:19:28;;;;;;;8.70;2.55;;;13.80;93.00;;;;;;5053370;28;20036;-81
2021/09/29 07:21:54;;;;;;;7.85;2.47;;;13.80;93.10;;;;;;5051449;28;20021;-81
2021/09/29 07:24:20;;;;;;;9.07;2.47;;;13.80;93.10;;;;;;5052851;28;20013;-81
2021/09/29 07:26:46;;;;;;;8.13;2.15;;;13.80;93.10;;;;;;5053373;28;20404;-81
2021/09/29 07:29:12;;;;;;;7.38;2.45;;;13.80;93.20;;;;;;5035246;28;20028;-81
2021/09/29 07:31:38;;;;;;;8.95;2.30;;;13.80;93.30;;;;;;5035616;28;20115;-81
2021/09/29 07:34:06;;;;;;;7.38;2.25;;;13.80;93.40;;;;;;5052142;28;20032;-81
2021/09/29 07:36:33;;;;;;;12.57;2.67;;;13.70;93.50;;;;;;5052070;28;20052;-81
2021/09/29 07:39:00;;;;;;;13.75;2.70;;;13.70;93.60;;;;;;5035106;28;20040;-82
2021/09/29 07:41:25;;;;;;;6.70;2.78;;;13.70;93.60;;;;;;5053506;28;20490;-82
2021/09/29 07:43:51;;;;;;;6.10;2.30;;;13.70;93.70;;;;;;5053380;28;20029;-82
2021/09/29 07:46:17;;;;;;;7.00;2.50;;;13.70;93.70;;;;;;5053772;28;20029;-82
2021/09/29 07:48:42;;;;;;;13.15;2.63;;;13.70;93.80;;;;;;5053537;28;20116;-83
2021/09/29 07:51:09;;;;;;;9.25;2.80;;;13.70;93.90;;;;;;5035756;28;20112;-82
2021/09/29 07:53:35;;;;;;;8.23;2.38;;;13.70;94.20;;;;;;5036244;28;20025;-83
2021/09/29 07:56:00;;;;;;;7.38;2.50;;;13.70;94.00;;;;;;5035856;28;20029;-83
2021/09/29 07:58:26;;;;;;;6.00;2.30;;;13.80;94.10;;;;;;5053335;28;20029;-83
2021/09/29 08:00:52;;;;;;;3.83;2.05;;;13.90;94.00;;;;;;5053420;28;20078;-84
2021/09/29 08:03:18;;;;;;;6.85;2.53;;;14.00;94.00;;;;;;5053363;28;20025;-83
2021/09/29 08:05:43;;;;;;;9.95;2.55;;;14.00;93.80;;;;;;5053525;28;20479;-83
2021/09/29 08:08:09;;;;;;;11.57;2.72;;;14.10;93.80;;;;;;5053239;28;20486;-84
2021/09/29 08:10:35;;;;;;;4.80;2.08;;;14.10;93.70;;;;;;5035479;28;20036;-83
2021/09/29 08:13:01;;;;;;;3.47;2.20;;;14.10;93.70;;;;;;5035170;28;20561;-83
2021/09/29 08:15:27;;;;;;;5.32;2.00;;;14.10;93.60;;;;;;5053317;28;20040;-83
2021/09/29 08:17:55;;;;;;;8.55;2.20;;;14.00;93.60;;;;;;5034721;28;20462;-84
2021/09/29 08:20:23;;;;;;;9.90;2.53;;;14.00;93.70;;;;;;5035303;28;20363;-83
2021/09/29 08:22:55;;;;;;;4.57;2.05;;;14.00;93.70;;;;;;5052017;28;20055;-83
2021/09/29 08:25:41;;;;;;;4.78;1.83;;;14.00;93.70;;;;;;5035742;28;20574;-84
2021/09/29 08:30:53;;;;;;;4.97;2.13;;;14.00;93.70;;;;;;5057877;28;20037;-84
2021/09/29 08:33:30;;;;;;;3.40;1.95;;;14.00;93.80;;;;;;5027790;28;20358;-84
2021/09/29 08:38:48;;;;;;;7.03;2.17;;;14.00;93.80;;;;;;5059844;28;20036;-84
2021/09/29 08:46:19;;;;;;;6.10;2.05;;;14.10;93.90;;;;;;5059794;28;20037;-83
2021/09/29 08:51:45;;;;;;;5.70;1.77;;;14.10;93.90;;;;;;5059252;28;20025;-84
2021/09/29 08:56:46;;;;;;;7.40;2.20;;;14.20;93.60;;;;;;5059770;28;20466;-84
2021/09/29 09:18:09;;;;;;;4.18;1.48;;;13.80;93.10;;;;;;5053523;28;20055;-79
2021/09/29 09:20:40;;;;;;;4.13;1.60;;;13.80;93.30;;;;;;5053003;28;20025;-79
2021/09/29 09:23:06;;;;;;;7.13;1.65;;;13.80;93.50;;;;;;5051138;28;20065;-78
2021/09/29 09:25:38;;;;;;;6.03;1.73;;;13.80;93.60;;;;;;5052604;28;20048;-79
2021/09/29 09:28:06;;;;;;;5.78;1.40;;;13.90;93.60;;;;;;5052909;28;20033;-79
2021/09/29 09:30:34;;;;;;;4.65;1.83;;;13.90;93.60;;;;;;5051220;28;20434;-79
2021/09/29 09:33:00;;;;;;;6.18;1.25;;;14.00;93.60;;;;;;5052526;28;20032;-79
2021/09/29 09:35:39;;;;;;;3.95;1.70;;;13.90;93.40;;;;;;5023832;28;20035;-79
2021/09/29 09:38:09;;;;;;;;;;;13.90;93.40;;;;;;5051773;28;20108;-78
2021/09/29 09:40:37;;;;;;;3.63;1.60;;;14.00;93.50;;;;;;5037445;28;19919;-78
2021/09/29 09:43:04;;;;;;;8.00;1.85;;;13.90;93.50;;;;;;5045531;28;20025;-78
2021/09/29 09:45:48;;;;;;;4.88;1.77;;;13.90;93.50;;;;;;5047424;28;20487;-77
2021/09/29 09:48:26;;;;;;;4.53;1.70;;;14.00;93.70;;;;;;5047005;28;20458;-78
2021/09/29 09:51:07;;;;;;;4.65;2.20;;;13.90;93.60;;;;;;5047324;28;20040;-78
2021/09/29 09:53:35;;;;;;;4.32;2.08;;;13.90;93.60;;;;;;5048994;28;20033;-78
2021/09/29 09:56:20;;;;;;;5.05;2.10;;;13.90;93.70;;;;;;5050704;28;20060;-78
2021/09/29 09:58:47;;;;;;;3.63;1.80;;;13.90;93.70;;;;;;5049192;28;20040;-78
2021/09/29 10:01:17;;;;;;;5.60;2.20;;;13.90;93.70;;;;;;5050072;28;20159;-78
2021/09/29 10:03:43;;;;;;;6.30;2.17;;;13.80;93.60;;;;;;5015485;28;20025;-78
2021/09/29 10:06:09;;;;;;;5.35;1.58;;;13.80;93.60;;;;;;5019433;28;20029;-78
2021/09/29 10:08:35;;;;;;;4.82;2.00;;;13.80;93.70;;;;;;5016906;28;20071;-78
2021/09/29 10:11:27;;;;;;;10.68;2.08;;;13.80;93.70;;;;;;5018488;28;20029;-79
2021/09/29 10:14:41;;;;;;;6.47;2.38;;;13.80;93.90;;;;;;5045393;28;20037;-79
2021/09/29 10:27:57;;;;;;;4.25;1.65;;;14.50;93.50;;;;;;5047289;28;20120;-79
2021/09/29 10:30:28;;;;;;;4.10;1.83;;;14.60;93.40;;;;;;5017343;28;20028;-79
2021/09/29 10:32:58;;;;;;;4.07;2.00;;;14.70;93.30;;;;;;5048984;28;20044;-78
2021/09/29 10:41:00;;;;;;;7.07;2.40;;;14.80;92.60;;;;;;5048069;28;20076;-78
2021/09/29 11:30:52;;;;;;;4.60;1.92;;;14.60;92.00;;;;;;5053239;28;20025;-79
2021/09/29 11:36:56;;;;;;;2.60;1.67;;;14.50;91.90;;;;;;5051974;28;20036;-79
2021/09/29 11:50:13;;;;;;;9.07;2.70;;;14.60;91.90;;;;;;5023201;28;20044;-78
2021/09/29 12:10:11;;;;;;;8.95;1.27;;;13.80;90.10;;;;;;5006157;28;20079;-79
2021/09/29 12:12:38;;;;;;;4.90;0.98;;;13.50;90.20;;;;;;5015073;28;20373;-80
2021/09/29 12:15:07;;;;;;;4.68;1.33;;;13.20;90.40;;;;;;5012296;28;20037;-79
2021/09/29 12:17:38;;;;;;;4.30;1.00;;;13.00;90.90;;;;;;5014772;28;20026;-79
2021/09/29 12:23:01;;;;;;;4.93;1.10;;;12.80;91.30;;;;;;5006244;28;20034;-79
2021/09/29 12:25:45;;;;;;;9.52;1.65;;;12.70;91.50;;;;;;5017812;28;20490;-78
2021/09/29 12:28:20;;;;;;;3.80;1.00;;;12.70;91.10;;;;;;5017283;28;20497;-78
2021/09/29 12:31:11;;;;;;;4.68;1.00;;;12.60;91.20;;;;;;5018283;28;20082;-78
2021/09/29 12:33:53;;;;;;;3.67;0.80;;;12.60;91.30;;;;;;5000816;28;20056;-78
2021/09/29 12:36:33;;;;;;;4.07;0.63;;;12.60;91.30;;;;;;5010708;28;20087;-78
2021/09/29 12:39:00;;;;;;;2.00;0.70;;;12.60;91.40;;;;;;5013558;28;20456;-79
2021/09/29 12:41:28;;;;;;;4.05;0.80;;;12.70;91.10;;;;;;5005978;28;20037;-79
2021/09/29 12:44:04;;;;;;;3.97;0.75;;;12.60;90.70;;;;;;5007658;28;20030;-78
2021/09/29 12:46:31;;;;;;;5.10;0.93;;;12.50;90.90;;;;;;5008938;28;20040;-80
2021/09/29 12:48:57;;;;;;;4.03;0.90;;;12.60;91.10;;;;;;5006505;28;20046;-81
2021/09/29 12:51:24;;;;;;;6.25;0.80;;;12.60;91.10;;;;;;4988503;28;20058;-77
2021/09/29 12:53:59;;;;;;;4.82;0.60;;;12.70;91.30;;;;;;5016630;28;20034;-82
2021/09/29 12:56:25;;;;;;;5.25;0.73;;;13.00;91.50;;;;;;5005625;28;20083;-81
2021/09/29 12:58:50;;;;;;;2.28;0.63;;;13.10;91.40;;;;;;5004959;28;20042;-81
2021/09/29 13:01:17;;;;;;;6.85;0.65;;;13.30;91.20;;;;;;5007214;28;20075;-81
2021/09/29 13:03:43;;;;;;;3.40;0.70;;;13.40;91.00;;;;;;5007423;28;20863;-81
2021/09/29 13:06:12;;;;;;;2.03;0.63;;;13.50;90.70;;;;;;5006304;28;20026;-80
2021/09/29 13:08:38;;;;;;;;;;;13.60;90.70;;;;;;5002046;28;20031;-81
2021/09/29 13:11:03;;;;;;;3.83;0.90;;;13.70;91.00;;;;;;4992144;28;19913;-81
2021/09/29 13:13:35;;;;;;;7.82;1.30;;;13.80;91.20;;;;;;4992380;28;20083;-81
2021/09/29 13:16:02;;;;;;;8.23;1.17;;;13.90;91.30;;;;;;4993108;28;20025;-81
2021/09/29 13:23:57;;;;;;;5.07;0.98;;;13.90;91.40;;;;;;4973743;28;20023;-79
2021/09/29 13:26:53;;;;;;;4.72;1.40;;;14.00;91.30;;;;;;4986471;28;20540;-79
2021/09/29 13:35:14;;;;;;;5.13;1.10;;;14.30;91.10;;;;;;4996586;28;20037;-79
2021/09/29 13:37:39;;;;;;;6.80;1.30;;;14.40;91.40;;;;;;5012544;28;20026;-79
2021/09/29 13:40:06;;;;;;;5.55;1.20;;;14.50;91.30;;;;;;5004753;28;20053;-79
2021/09/29 13:42:32;;;;;;;8.98;1.38;;;14.60;91.20;;;;;;4991673;28;20139;-79
2021/09/29 13:44:58;;;;;;;6.68;1.13;;;14.70;91.10;;;;;;4992913;28;20055;-79
2021/09/29 13:47:24;;;;;;;7.03;1.25;;;14.80;90.80;;;;;;4991372;28;20561;-79
2021/09/29 13:49:51;;;;;;;5.65;1.48;;;14.90;90.70;;;;;;4992659;28;20072;-80
2021/09/29 13:52:21;;;;;;;11.23;1.50;;;15.00;90.70;;;;;;5003488;28;20079;-79
2021/09/29 13:54:49;;;;;;;14.05;2.55;;;14.90;90.80;;;;;;4998272;28;20038;-79
2021/09/29 13:57:26;;;;;;;8.85;1.50;;;14.70;90.20;;;;;;5007632;28;20053;-80
2021/09/29 14:29:48;;;;;;;5.97;1.08;;;14.00;92.20;;;;;;4986222;28;20175;-80
2021/09/29 14:32:18;;;;;;;4.93;1.58;;;14.10;92.10;;;;;;4992756;28;20045;-80
2021/09/29 14:34:44;;;;;;;4.82;1.10;;;14.20;91.70;;;;;;4989763;28;20038;-80
2021/09/29 14:37:11;;;;;;;4.22;1.10;;;14.20;91.60;;;;;;4988709;28;20056;-79
2021/09/29 14:39:37;;;;;;;6.65;1.27;;;14.20;91.50;;;;;;4990069;28;20026;-80
2021/09/29 14:42:02;;;;;;;10.98;1.40;;;14.20;91.50;;;;;;4990730;28;20076;-80
2021/09/29 14:44:29;;;;;;;6.75;1.10;;;14.20;91.40;;;;;;4995223;28;20637;-80
2021/09/29 14:46:55;;;;;;;4.95;0.95;;;14.20;91.00;;;;;;4989923;28;20026;-80
2021/09/29 14:49:21;;;;;;;6.45;1.15;;;14.30;91.00;;;;;;4993654;28;20033;-80
2021/09/29 14:51:47;;;;;;;2.95;0.90;;;14.30;91.00;;;;;;4992984;28;20405;-81
2021/09/29 14:54:12;;;;;;;6.57;0.80;;;14.30;91.10;;;;;;4991029;28;20023;-81
2021/09/29 14:56:38;;;;;;;7.60;1.08;;;14.40;91.20;;;;;;4977955;28;20076;-79
2021/09/29 14:59:04;;;;;;;3.35;0.90;;;14.40;91.10;;;;;;4989862;28;20030;-79
2021/09/29 15:01:33;;;;;;;6.45;0.82;;;14.30;91.10;;;;;;4991615;28;20026;-81
2021/09/29 15:03:58;;;;;;;4.53;0.70;;;14.30;91.00;;;;;;4989737;28;20034;-80
2021/09/29 15:06:25;;;;;;;5.93;0.80;;;14.20;90.80;;;;;;4973753;28;20049;-80
2021/09/29 15:08:51;;;;;;;5.25;0.80;;;14.10;90.90;;;;;;4990279;28;20034;-80
2021/09/29 15:11:17;;;;;;;6.53;0.88;;;14.00;90.70;;;;;;4990877;28;20035;-80
2021/09/29 15:14:30;;;;;;;3.70;0.75;;;14.00;90.90;;;;;;4998865;28;20042;-82
2021/09/29 15:16:36;;;;;;;5.60;0.93;;;13.90;90.40;;;;;;4980883;28;20038;-79
2021/09/29 15:19:18;;;;;;;10.98;0.88;;;13.90;90.20;;;;;;4992817;28;20026;-80
2021/09/29 15:30:06;;;;;;;3.63;0.90;;;14.00;90.30;;;;;;4999278;28;20320;-79
2021/09/29 15:46:13;;;;;;;3.58;0.70;;;14.10;90.20;;;;;;4995376;28;20383;-79
2021/09/29 15:49:10;;;;;;;3.17;0.80;;;14.30;88.30;;;;;;4990233;28;20044;-80
2021/09/29 15:54:30;;;;;;;2.30;0.52;;;14.30;87.60;;;;;;4977771;28;20125;-79
2021/09/29 15:57:17;;;;;;;4.60;0.85;;;14.30;87.70;;;;;;4979541;28;20085;-76
2021/09/29 16:00:11;;;;;;;5.20;0.60;;;14.20;87.90;;;;;;4976247;28;20039;-75
2021/09/29 16:07:46;;;;;;;2.72;0.38;;;14.10;88.70;;;;;;4988606;28;20034;-75
2021/09/29 16:21:09;;;;;;;5.53;0.80;;;14.10;88.70;;;;;;4988896;28;20030;-75
2021/09/29 16:31:19;;;;;;;6.22;0.68;;;13.90;89.10;;;;;;4989081;28;20077;-76
2021/09/29 16:33:50;;;;;;;7.68;0.68;;;13.90;89.30;;;;;;4987905;28;20398;-76
2021/09/29 16:36:17;;;;;;;5.50;1.10;;;13.80;89.00;;;;;;4989643;28;20078;-78